Time;durP1;ratioP1;P1;durP2;ratioP2;P2;SDS_P1;SDS_P2;PMS_P1;PMS_P2;Temp;Humidity;BMP_temperature;BMP_pressure;BME280_temperature;BME280_humidity;BME280_pressure;Samples;Min_cycle;Max_cycle;Signal;HPM_P1;HPM_P2
2021/04/10 00:00:56;;;;;;;22.02;3.55;;;;;;;;;;4975581;28;20046;-78
2021/04/10 00:03:24;;;;;;;16.42;3.55;;;;;;;;;;4992587;28;20050;-79
2021/04/10 00:05:51;;;;;;;14.95;3.05;;;;;;;;;;4992349;28;20467;-79
2021/04/10 00:08:17;;;;;;;18.45;3.50;;;;;;;;;;4992818;28;20081;-79
2021/04/10 00:10:44;;;;;;;25.77;3.65;;;;;;;;;;4975426;28;20082;-79
2021/04/10 00:13:12;;;;;;;19.17;3.17;;;;;;;;;;4975871;28;20491;-79
2021/04/10 00:15:39;;;;;;;16.60;3.47;;;;;;;;;;4975199;28;20054;-79
2021/04/10 00:18:05;;;;;;;17.27;2.72;;;;;;;;;;5007668;28;20094;-79
2021/04/10 00:20:32;;;;;;;26.25;3.28;;;;;;;;;;5007511;28;20447;-79
2021/04/10 00:22:59;;;;;;;20.20;3.75;;;;;;;;;;4992874;28;20161;-79
2021/04/10 00:25:26;;;;;;;39.95;3.50;;;;;;;;;;5007446;28;20061;-79
2021/04/10 00:27:55;;;;;;;20.77;3.55;;;;;;;;;;5006671;28;20101;-79
2021/04/10 00:30:21;;;;;;;14.40;3.55;;;;;;;;;;5007201;28;20089;-79
2021/04/10 00:32:50;;;;;;;21.63;3.83;;;;;;;;;;5007290;28;20372;-79
2021/04/10 00:35:24;;;;;;;29.17;4.22;;;;;;;;;;5007251;28;20471;-79
2021/04/10 00:37:50;;;;;;;31.67;3.28;;;;;;;;;;5007259;28;20078;-79
2021/04/10 00:40:17;;;;;;;22.33;3.78;;;;;;;;;;4991963;28;20085;-78
2021/04/10 00:42:44;;;;;;;22.63;3.40;;;;;;;;;;4992087;28;20092;-79
2021/04/10 00:45:12;;;;;;;15.77;2.95;;;;;;;;;;4991517;28;20046;-79
2021/04/10 00:47:38;;;;;;;10.95;2.55;;;;;;;;;;4975054;28;20046;-79
2021/04/10 00:50:06;;;;;;;18.77;3.15;;;;;;;;;;4983931;28;20483;-79
2021/04/10 00:52:33;;;;;;;19.77;3.33;;;;;;;;;;4972825;28;20572;-79
2021/04/10 00:55:00;;;;;;;18.45;3.40;;;;;;;;;;4974460;28;20442;-79
2021/04/10 00:57:27;;;;;;;24.98;3.50;;;;;;;;;;4991339;28;20090;-79
2021/04/10 00:59:54;;;;;;;28.88;3.47;;;;;;;;;;4976469;28;20079;-79
2021/04/10 01:02:20;;;;;;;18.60;3.45;;;;;;;;;;4991635;28;20089;-78
2021/04/10 01:04:47;;;;;;;21.45;4.05;;;;;;;;;;4976159;28;20059;-79
2021/04/10 01:07:14;;;;;;;21.58;3.80;;;;;;;;;;4976567;28;20061;-78
2021/04/10 01:09:42;;;;;;;12.70;3.17;;;;;;;;;;4991014;28;20094;-78
2021/04/10 01:12:23;;;;;;;30.67;4.28;;;;;;;;;;4990985;28;20134;-79
2021/04/10 01:15:09;;;;;;;28.90;4.25;;;;;;;;;;4990492;28;20149;-79
2021/04/10 01:17:41;;;;;;;26.52;4.10;;;;;;;;;;4990435;28;20082;-79
2021/04/10 01:20:11;;;;;;;21.05;4.15;;;;;;;;;;5010435;28;20046;-79
2021/04/10 01:22:50;;;;;;;26.27;4.28;;;;;;;;;;5010443;28;20182;-79
2021/04/10 01:25:23;;;;;;;24.02;3.17;;;;;;;;;;4995606;28;20057;-79
2021/04/10 01:28:01;;;;;;;21.25;4.00;;;;;;;;;;5010369;28;20046;-79
2021/04/10 01:30:32;;;;;;;16.83;3.55;;;;;;;;;;4995509;28;20669;-79
2021/04/10 01:33:01;;;;;;;23.98;3.97;;;;;;;;;;4987699;28;20053;-79
2021/04/10 01:35:33;;;;;;;26.60;4.40;;;;;;;;;;4976117;28;20047;-79
2021/04/10 01:38:00;;;;;;;24.50;4.32;;;;;;;;;;4990797;28;20086;-79
2021/04/10 01:40:29;;;;;;;20.98;4.43;;;;;;;;;;4975584;28;20528;-79
2021/04/10 01:42:56;;;;;;;29.13;4.55;;;;;;;;;;4983044;28;20049;-79
2021/04/10 01:45:23;;;;;;;26.77;5.43;;;;;;;;;;4994651;28;20082;-79
2021/04/10 01:47:52;;;;;;;28.05;6.03;;;;;;;;;;4994611;28;20050;-80
2021/04/10 01:50:20;;;;;;;32.97;4.90;;;;;;;;;;4995466;28;20117;-80
2021/04/10 01:52:47;;;;;;;21.52;5.28;;;;;;;;;;4994859;28;20137;-79
2021/04/10 01:55:14;;;;;;;22.75;5.65;;;;;;;;;;4977499;28;20050;-79
2021/04/10 01:57:42;;;;;;;28.40;5.40;;;;;;;;;;4977539;28;20125;-79
2021/04/10 02:00:09;;;;;;;22.05;5.25;;;;;;;;;;4994187;28;20086;-79
2021/04/10 02:02:41;;;;;;;18.92;4.28;;;;;;;;;;4990419;28;20134;-80
2021/04/10 02:05:10;;;;;;;26.88;4.78;;;;;;;;;;4990134;28;20081;-80
2021/04/10 02:07:38;;;;;;;22.27;4.50;;;;;;;;;;4974305;28;20078;-79
2021/04/10 02:10:06;;;;;;;22.52;4.38;;;;;;;;;;4989985;28;20050;-80
2021/04/10 02:12:33;;;;;;;27.70;4.65;;;;;;;;;;4978893;28;20074;-79
2021/04/10 02:15:00;;;;;;;20.55;4.07;;;;;;;;;;4994305;28;20097;-80
2021/04/10 02:17:28;;;;;;;29.83;5.63;;;;;;;;;;4994475;28;20043;-79
2021/04/10 02:19:56;;;;;;;32.75;5.65;;;;;;;;;;4994433;28;20074;-79
2021/04/10 02:22:23;;;;;;;29.77;4.85;;;;;;;;;;4976846;28;20081;-78
2021/04/10 02:24:50;;;;;;;28.00;5.25;;;;;;;;;;4976964;28;20077;-79
2021/04/10 02:27:17;;;;;;;30.48;4.80;;;;;;;;;;4976538;28;20084;-79
2021/04/10 02:29:57;;;;;;;22.25;4.68;;;;;;;;;;4977028;28;20046;-79
2021/04/10 02:32:25;;;;;;;30.70;5.30;;;;;;;;;;4993921;28;20476;-80
2021/04/10 02:34:59;;;;;;;25.75;5.15;;;;;;;;;;4994323;28;20058;-79
2021/04/10 02:37:27;;;;;;;21.33;5.15;;;;;;;;;;4993900;28;20051;-79
2021/04/10 02:39:55;;;;;;;31.20;4.78;;;;;;;;;;4976621;28;20125;-79
2021/04/10 02:42:22;;;;;;;25.15;4.90;;;;;;;;;;4994190;28;20113;-79
2021/04/10 02:44:50;;;;;;;29.05;5.18;;;;;;;;;;4994118;28;20476;-79
2021/04/10 02:47:19;;;;;;;28.55;5.22;;;;;;;;;;4994092;28;20078;-79
2021/04/10 02:49:49;;;;;;;28.90;5.75;;;;;;;;;;4994087;28;20078;-79
2021/04/10 02:52:20;;;;;;;23.17;5.35;;;;;;;;;;4993603;28;20678;-79
2021/04/10 02:54:49;;;;;;;26.58;5.25;;;;;;;;;;4976685;28;20078;-80
2021/04/10 02:57:20;;;;;;;22.58;5.55;;;;;;;;;;4991982;28;20085;-80
2021/04/10 02:59:49;;;;;;;18.02;5.55;;;;;;;;;;4965116;28;20085;-79
2021/04/10 03:02:16;;;;;;;24.58;6.07;;;;;;;;;;4993542;28;20054;-80
2021/04/10 03:04:49;;;;;;;22.60;5.95;;;;;;;;;;4993840;28;20054;-80
2021/04/10 03:07:17;;;;;;;38.30;7.28;;;;;;;;;;4992083;28;20054;-80
2021/04/10 03:09:45;;;;;;;30.40;7.93;;;;;;;;;;4982354;28;20546;-80
2021/04/10 03:12:13;;;;;;;45.83;9.27;;;;;;;;;;5000702;28;20082;-80
2021/04/10 03:14:45;;;;;;;35.90;9.23;;;;;;;;;;4975489;28;20104;-80
2021/04/10 03:17:15;;;;;;;28.67;7.93;;;;;;;;;;4993052;28;20050;-80
2021/04/10 03:19:44;;;;;;;30.50;7.47;;;;;;;;;;4976231;28;20047;-80
2021/04/10 03:22:12;;;;;;;30.52;7.82;;;;;;;;;;4992222;28;20108;-80
2021/04/10 03:24:38;;;;;;;33.22;9.15;;;;;;;;;;4993248;28;20058;-80
2021/04/10 03:27:05;;;;;;;36.78;8.45;;;;;;;;;;4992422;28;20138;-80
2021/04/10 03:29:33;;;;;;;33.03;8.10;;;;;;;;;;4975926;28;20074;-80
2021/04/10 03:31:59;;;;;;;32.10;8.52;;;;;;;;;;4976102;28;20133;-80
2021/04/10 03:34:26;;;;;;;37.08;8.20;;;;;;;;;;4975512;28;20074;-80
2021/04/10 03:36:54;;;;;;;28.05;7.38;;;;;;;;;;4975227;28;20097;-79
2021/04/10 03:39:21;;;;;;;28.88;7.80;;;;;;;;;;4992420;28;20074;-79
2021/04/10 03:41:48;;;;;;;31.88;8.30;;;;;;;;;;4974621;28;20105;-80
2021/04/10 03:44:16;;;;;;;38.92;10.80;;;;;;;;;;4992761;28;20555;-80
2021/04/10 03:46:43;;;;;;;45.25;11.27;;;;;;;;;;5008084;28;20579;-80
2021/04/10 03:49:12;;;;;;;38.08;7.93;;;;;;;;;;4993266;28;20093;-80
2021/04/10 03:51:40;;;;;;;38.28;7.45;;;;;;;;;;4992923;28;20042;-80
2021/04/10 03:54:07;;;;;;;29.25;7.55;;;;;;;;;;4992843;28;20046;-80
2021/04/10 03:56:34;;;;;;;33.67;8.45;;;;;;;;;;4991504;28;20046;-80
2021/04/10 03:59:00;;;;;;;19.35;6.63;;;;;;;;;;4975394;28;20046;-79
2021/04/10 04:01:27;;;;;;;22.38;6.55;;;;;;;;;;4975691;28;20109;-80
2021/04/10 04:03:54;;;;;;;25.23;6.75;;;;;;;;;;4975623;28;20050;-80
2021/04/10 04:06:21;;;;;;;28.08;7.07;;;;;;;;;;4992613;28;20050;-80
2021/04/10 04:08:48;;;;;;;18.85;6.80;;;;;;;;;;4975515;28;20077;-80
2021/04/10 04:11:15;;;;;;;33.08;6.38;;;;;;;;;;4993016;28;20471;-80
2021/04/10 04:13:46;;;;;;;35.13;7.97;;;;;;;;;;4992587;28;20078;-80
2021/04/10 04:16:13;;;;;;;26.60;6.88;;;;;;;;;;4975163;28;20070;-80
2021/04/10 04:18:42;;;;;;;44.15;8.48;;;;;;;;;;4992670;28;20534;-80
2021/04/10 04:21:08;;;;;;;34.15;6.88;;;;;;;;;;4992731;28;20051;-80
2021/04/10 04:23:38;;;;;;;30.73;7.30;;;;;;;;;;4992477;28;20475;-80
2021/04/10 04:26:07;;;;;;;48.00;9.07;;;;;;;;;;4975052;28;20081;-80
2021/04/10 04:28:34;;;;;;;32.30;8.23;;;;;;;;;;4975423;28;20499;-79
2021/04/10 04:31:01;;;;;;;45.25;9.43;;;;;;;;;;4978920;28;20435;-80
2021/04/10 04:33:30;;;;;;;34.90;8.18;;;;;;;;;;4979119;28;20042;-80
2021/04/10 04:35:57;;;;;;;32.78;8.00;;;;;;;;;;4979029;28;20538;-80
2021/04/10 04:38:24;;;;;;;56.53;8.35;;;;;;;;;;4996416;28;20050;-79
2021/04/10 04:40:51;;;;;;;45.33;8.45;;;;;;;;;;4996672;28;20158;-79
2021/04/10 04:43:18;;;;;;;40.22;8.20;;;;;;;;;;4978316;28;20129;-79
2021/04/10 04:45:45;;;;;;;45.15;9.10;;;;;;;;;;5010729;28;20046;-79
2021/04/10 04:48:11;;;;;;;30.92;8.73;;;;;;;;;;5010115;28;20109;-79
2021/04/10 04:50:41;;;;;;;48.75;7.95;;;;;;;;;;4995384;28;20055;-79
2021/04/10 04:53:08;;;;;;;40.15;8.60;;;;;;;;;;4991340;28;20074;-80
2021/04/10 04:55:34;;;;;;;29.42;8.27;;;;;;;;;;4991553;28;20503;-79
2021/04/10 04:58:01;;;;;;;39.38;8.10;;;;;;;;;;4991619;28;20423;-79
2021/04/10 05:00:28;;;;;;;42.05;9.60;;;;;;;;;;4991451;28;20136;-79
2021/04/10 05:02:54;;;;;;;31.25;7.55;;;;;;;;;;4994229;28;20050;-80
2021/04/10 05:05:21;;;;;;;30.20;7.97;;;;;;;;;;4996061;28;20100;-79
2021/04/10 05:07:49;;;;;;;35.05;7.70;;;;;;;;;;5010907;28;20089;-80
2021/04/10 05:10:16;;;;;;;32.88;8.68;;;;;;;;;;5011687;28;20050;-80
2021/04/10 05:12:42;;;;;;;37.83;7.70;;;;;;;;;;4996813;28;20078;-80
2021/04/10 05:15:09;;;;;;;36.00;9.75;;;;;;;;;;4996184;28;20065;-79
2021/04/10 05:17:36;;;;;;;37.38;8.45;;;;;;;;;;5010872;28;20073;-80
2021/04/10 05:20:04;;;;;;;32.72;8.75;;;;;;;;;;5010924;28;20134;-80
2021/04/10 05:22:31;;;;;;;32.63;8.68;;;;;;;;;;4995246;28;20084;-79
2021/04/10 05:24:58;;;;;;;30.55;8.15;;;;;;;;;;4995323;28;20050;-79
2021/04/10 05:27:24;;;;;;;30.58;8.60;;;;;;;;;;4977552;28;20766;-78
2021/04/10 05:29:51;;;;;;;40.72;8.27;;;;;;;;;;4995225;28;20484;-79
2021/04/10 05:32:17;;;;;;;29.10;7.93;;;;;;;;;;4978268;28;20100;-79
2021/04/10 05:34:44;;;;;;;35.55;8.55;;;;;;;;;;4995521;28;20101;-79
2021/04/10 05:37:16;;;;;;;33.05;9.02;;;;;;;;;;4978268;28;20089;-79
2021/04/10 05:39:51;;;;;;;51.08;9.38;;;;;;;;;;4978275;28;20046;-79
2021/04/10 05:42:18;;;;;;;33.17;9.20;;;;;;;;;;4977985;28;20105;-79
2021/04/10 05:44:44;;;;;;;32.95;8.40;;;;;;;;;;4995486;28;20457;-79
2021/04/10 05:47:13;;;;;;;32.78;8.48;;;;;;;;;;4995006;28;20516;-79
2021/04/10 05:49:40;;;;;;;27.70;7.95;;;;;;;;;;4995503;28;20096;-79
2021/04/10 05:52:08;;;;;;;37.15;9.63;;;;;;;;;;4977889;28;20054;-79
2021/04/10 05:54:35;;;;;;;38.58;8.57;;;;;;;;;;4994960;28;20043;-79
2021/04/10 05:57:04;;;;;;;31.50;9.07;;;;;;;;;;4977438;28;20061;-79
2021/04/10 05:59:30;;;;;;;31.20;8.75;;;;;;;;;;4994839;28;20055;-79
2021/04/10 06:01:58;;;;;;;26.15;8.43;;;;;;;;;;4994839;28;20058;-79
2021/04/10 06:04:25;;;;;;;32.60;7.78;;;;;;;;;;4994959;28;20093;-80
2021/04/10 06:06:51;;;;;;;30.88;8.40;;;;;;;;;;5009858;28;20479;-79
2021/04/10 06:09:20;;;;;;;33.17;8.65;;;;;;;;;;5009839;28;20551;-79
2021/04/10 06:11:47;;;;;;;28.05;8.27;;;;;;;;;;4991128;28;20078;-79
2021/04/10 06:14:13;;;;;;;32.25;7.88;;;;;;;;;;4993973;28;20050;-79
2021/04/10 06:16:40;;;;;;;35.67;8.77;;;;;;;;;;4991820;28;20084;-79
2021/04/10 06:19:07;;;;;;;21.92;7.05;;;;;;;;;;4974877;28;20046;-77
2021/04/10 06:21:34;;;;;;;25.77;7.70;;;;;;;;;;4973866;28;20444;-77
2021/04/10 06:24:00;;;;;;;26.15;6.60;;;;;;;;;;4973599;28;20550;-77
2021/04/10 06:26:27;;;;;;;36.08;6.63;;;;;;;;;;4973391;28;20090;-79
2021/04/10 06:28:54;;;;;;;32.75;7.07;;;;;;;;;;4973860;28;20090;-77
2021/04/10 06:31:21;;;;;;;26.83;6.07;;;;;;;;;;4987090;28;20539;-80
2021/04/10 06:33:48;;;;;;;31.33;6.03;;;;;;;;;;4992049;28;20542;-79
2021/04/10 06:36:16;;;;;;;20.90;4.78;;;;;;;;;;4991361;28;20054;-78
2021/04/10 06:38:42;;;;;;;24.10;4.88;;;;;;;;;;4997881;28;20052;-78
2021/04/10 06:41:12;;;;;;;27.52;5.55;;;;;;;;;;5012803;28;20410;-77
2021/04/10 06:43:42;;;;;;;20.42;4.40;;;;;;;;;;4989150;28;20494;-78
2021/04/10 06:46:09;;;;;;;25.60;5.72;;;;;;;;;;5007596;28;20452;-78
2021/04/10 06:48:39;;;;;;;27.65;4.72;;;;;;;;;;4996158;28;20047;-77
2021/04/10 06:51:06;;;;;;;13.43;4.43;;;;;;;;;;4988655;28;20139;-78
2021/04/10 06:53:33;;;;;;;23.35;3.78;;;;;;;;;;5005419;28;20074;-77
2021/04/10 06:56:03;;;;;;;22.50;3.88;;;;;;;;;;5006001;28;20141;-78
2021/04/10 06:58:32;;;;;;;22.92;3.33;;;;;;;;;;5006505;28;20096;-79
2021/04/10 07:00:59;;;;;;;24.08;3.60;;;;;;;;;;4992049;28;20476;-81
2021/04/10 07:03:31;;;;;;;17.55;3.47;;;;;;;;;;5008365;28;20058;-81
2021/04/10 07:05:58;;;;;;;22.35;3.70;;;;;;;;;;4989607;28;20058;-80
2021/04/10 07:08:26;;;;;;;27.55;3.40;;;;;;;;;;4986394;28;20105;-81
2021/04/10 07:10:53;;;;;;;22.83;4.82;;;;;;;;;;4984149;28;20050;-79
2021/04/10 07:13:20;;;;;;;25.60;3.38;;;;;;;;;;4967829;28;20669;-82
2021/04/10 07:15:47;;;;;;;20.38;3.05;;;;;;;;;;4973571;28;20082;-83
2021/04/10 07:18:14;;;;;;;17.33;3.40;;;;;;;;;;4993455;28;20109;-84
2021/04/10 07:20:46;;;;;;;21.63;3.17;;;;;;;;;;5007962;28;20050;-82
2021/04/10 07:23:14;;;;;;;18.80;2.45;;;;;;;;;;4993321;28;20097;-83
2021/04/10 07:25:45;;;;;;;21.27;2.30;;;;;;;;;;5007656;28;20050;-79
2021/04/10 07:28:23;;;;;;;15.05;2.65;;;;;;;;;;4991586;28;20086;-80
2021/04/10 07:31:09;;;;;;;16.70;2.53;;;;;;;;;;4991945;28;20134;-82
2021/04/10 07:33:37;;;;;;;19.75;2.20;;;;;;;;;;5003486;28;20130;-79
2021/04/10 07:36:06;;;;;;;15.77;1.95;;;;;;;;;;4985463;28;20074;-81
2021/04/10 07:38:35;;;;;;;8.35;2.10;;;;;;;;;;4999703;28;20094;-78
2021/04/10 07:41:06;;;;;;;14.35;2.92;;;;;;;;;;4994389;28;20129;-83
2021/04/10 07:43:38;;;;;;;9.10;1.80;;;;;;;;;;4974925;28;20060;-81
2021/04/10 07:46:17;;;;;;;12.20;2.60;;;;;;;;;;5005731;28;20439;-81
2021/04/10 07:49:03;;;;;;;13.15;2.25;;;;;;;;;;5011984;28;20050;-84
2021/04/10 07:51:32;;;;;;;11.98;2.97;;;;;;;;;;4978153;28;20050;-82
2021/04/10 07:54:00;;;;;;;17.92;2.63;;;;;;;;;;4994630;28;20070;-77
2021/04/10 07:56:27;;;;;;;13.55;2.00;;;;;;;;;;4997781;28;20054;-79
2021/04/10 07:59:01;;;;;;;10.70;1.67;;;;;;;;;;4986029;28;20125;-78
2021/04/10 08:01:28;;;;;;;11.88;1.95;;;;;;;;;;4991625;28;20062;-81
2021/04/10 08:04:12;;;;;;;12.95;2.53;;;;;;;;;;4990628;28;20153;-80
2021/04/10 08:06:52;;;;;;;12.18;2.38;;;;;;;;;;4984323;28;20046;-84
2021/04/10 08:09:40;;;;;;;19.52;2.45;;;;;;;;;;4972664;28;20050;-80
2021/04/10 08:12:11;;;;;;;13.70;2.17;;;;;;;;;;4980076;28;20126;-80
2021/04/10 08:14:44;;;;;;;15.38;2.08;;;;;;;;;;4998744;28;20113;-80
2021/04/10 08:17:30;;;;;;;13.65;2.83;;;;;;;;;;4975469;28;20089;-81
2021/04/10 08:19:57;;;;;;;;;;;;;;;;;;4986805;28;20554;-79
2021/04/10 08:22:23;;;;;;;13.70;2.13;;;;;;;;;;4971676;28;20037;-78
2021/04/10 08:24:50;;;;;;;10.25;1.80;;;;;;;;;;4994889;28;20043;-77
2021/04/10 08:27:17;;;;;;;9.95;2.30;;;;;;;;;;5003501;28;20082;-77
2021/04/10 08:29:44;;;;;;;10.55;2.70;;;;;;;;;;4977905;28;20189;-78
2021/04/10 08:32:14;;;;;;;13.73;2.00;;;;;;;;;;4990933;28;20050;-78
2021/04/10 08:34:42;;;;;;;7.30;1.77;;;;;;;;;;4983918;28;20137;-79
2021/04/10 08:37:11;;;;;;;13.35;2.10;;;;;;;;;;4992288;28;20092;-79
2021/04/10 08:39:40;;;;;;;7.20;1.50;;;;;;;;;;4994980;28;20078;-81
2021/04/10 08:42:09;;;;;;;15.93;2.40;;;;;;;;;;4997386;28;20373;-78
2021/04/10 08:44:36;;;;;;;15.63;3.13;;;;;;;;;;4990519;28;20058;-79
2021/04/10 08:47:04;;;;;;;9.60;1.85;;;;;;;;;;4984985;28;20046;-80
2021/04/10 08:49:36;;;;;;;8.23;2.10;;;;;;;;;;4978553;28;20133;-79
2021/04/10 08:52:06;;;;;;;10.82;1.90;;;;;;;;;;4977258;28;20054;-77
2021/04/10 08:54:33;;;;;;;13.07;2.15;;;;;;;;;;4981466;28;20046;-79
2021/04/10 08:57:05;;;;;;;10.95;2.13;;;;;;;;;;4985577;28;20069;-77
2021/04/10 08:59:38;;;;;;;11.23;2.13;;;;;;;;;;4995916;28;20055;-77
2021/04/10 09:02:07;;;;;;;10.98;1.95;;;;;;;;;;4979944;28;20046;-78
2021/04/10 09:04:53;;;;;;;10.55;2.53;;;;;;;;;;4993229;28;20054;-77
2021/04/10 09:07:40;;;;;;;8.35;2.05;;;;;;;;;;4988403;28;20133;-80
2021/04/10 09:10:07;;;;;;;9.27;2.22;;;;;;;;;;4974669;28;20049;-79
2021/04/10 09:12:47;;;;;;;10.95;2.08;;;;;;;;;;4977020;28;20499;-79
2021/04/10 09:15:14;;;;;;;8.23;1.67;;;;;;;;;;4979723;28;20138;-79
2021/04/10 09:18:00;;;;;;;21.05;2.25;;;;;;;;;;5005170;28;20490;-79
2021/04/10 09:20:48;;;;;;;12.55;2.55;;;;;;;;;;5006270;28;20046;-81
2021/04/10 09:23:27;;;;;;;8.98;1.75;;;;;;;;;;4988306;28;20481;-83
2021/04/10 09:26:10;;;;;;;8.13;1.70;;;;;;;;;;4998432;28;20069;-79
2021/04/10 09:28:55;;;;;;;7.22;2.15;;;;;;;;;;5009518;28;20607;-80
2021/04/10 09:31:41;;;;;;;5.95;1.60;;;;;;;;;;5004517;28;20050;-80
2021/04/10 09:34:27;;;;;;;11.23;1.80;;;;;;;;;;4998854;28;20604;-79
2021/04/10 09:36:59;;;;;;;7.80;2.03;;;;;;;;;;4980960;28;20134;-82
2021/04/10 09:39:46;;;;;;;6.97;1.70;;;;;;;;;;5009384;28;20053;-81
2021/04/10 09:42:33;;;;;;;9.23;1.45;;;;;;;;;;4993887;28;20156;-80
2021/04/10 09:45:10;;;;;;;10.07;2.00;;;;;;;;;;5003985;28;20136;-81
2021/04/10 09:47:55;;;;;;;5.07;1.70;;;;;;;;;;4981503;28;20077;-79
2021/04/10 09:50:24;;;;;;;12.07;2.10;;;;;;;;;;5002067;28;20068;-80
2021/04/10 09:52:53;;;;;;;7.13;2.03;;;;;;;;;;4999043;28;20046;-81
2021/04/10 09:55:20;;;;;;;5.78;1.23;;;;;;;;;;5002227;28;20078;-79
2021/04/10 09:57:57;;;;;;;5.60;1.10;;;;;;;;;;5002034;28;20129;-82
2021/04/10 10:00:24;;;;;;;4.13;1.08;;;;;;;;;;4984880;28;20104;-82
2021/04/10 10:02:55;;;;;;;6.57;1.20;;;;;;;;;;5001135;28;20446;-83
2021/04/10 10:05:22;;;;;;;6.03;1.50;;;;;;;;;;4995232;28;20419;-83
2021/04/10 10:07:50;;;;;;;4.75;1.42;;;;;;;;;;4977869;28;20054;-84
2021/04/10 10:10:17;;;;;;;10.48;4.30;;;;;;;;;;4978099;28;20136;-82
2021/04/10 10:12:44;;;;;;;2.95;0.90;;;;;;;;;;4985303;28;20066;-81
2021/04/10 10:15:21;;;;;;;3.25;1.10;;;;;;;;;;4994532;28;20085;-82
2021/04/10 10:17:47;;;;;;;7.32;1.70;;;;;;;;;;4999553;28;20517;-81
2021/04/10 10:20:15;;;;;;;8.20;1.63;;;;;;;;;;4994313;28;20476;-84
2021/04/10 10:22:43;;;;;;;6.57;1.50;;;;;;;;;;4994005;28;20487;-84
2021/04/10 10:25:11;;;;;;;4.28;1.63;;;;;;;;;;4993964;28;20377;-85
2021/04/10 10:27:42;;;;;;;24.00;11.40;;;;;;;;;;4976205;28;20082;-87
2021/04/10 10:30:13;;;;;;;15.48;5.35;;;;;;;;;;5014276;28;20093;-83
2021/04/10 10:32:50;;;;;;;12.43;4.65;;;;;;;;;;5014609;28;20414;-82
2021/04/10 10:35:18;;;;;;;36.95;16.40;;;;;;;;;;4987533;28;20513;-86
2021/04/10 10:37:57;;;;;;;10.75;4.53;;;;;;;;;;5015037;28;20081;-87
2021/04/10 10:40:26;;;;;;;7.65;2.67;;;;;;;;;;4993261;28;20703;-84
2021/04/10 10:43:03;;;;;;;6.07;1.30;;;;;;;;;;5011933;28;20046;-84
2021/04/10 10:45:48;;;;;;;8.05;1.42;;;;;;;;;;4979862;28;20078;-85
2021/04/10 10:48:15;;;;;;;;;;;;;;;;;;4996939;28;20108;-86
2021/04/10 10:50:43;;;;;;;5.63;1.48;;;;;;;;;;4998908;28;20025;-84
2021/04/10 10:53:17;;;;;;;3.65;1.30;;;;;;;;;;4994745;28;20042;-84
2021/04/10 10:56:02;;;;;;;4.40;1.38;;;;;;;;;;5027840;28;20045;-85
2021/04/10 10:58:36;;;;;;;4.05;1.77;;;;;;;;;;5014354;28;20143;-84
2021/04/10 11:01:21;;;;;;;14.02;3.15;;;;;;;;;;5013896;28;20076;-85
2021/04/10 11:03:50;;;;;;;11.02;3.65;;;;;;;;;;5003498;28;20057;-79
2021/04/10 11:06:23;;;;;;;8.07;3.05;;;;;;;;;;5013661;28;20100;-83
2021/04/10 11:08:57;;;;;;;9.23;1.40;;;;;;;;;;4979414;28;20107;-82
2021/04/10 11:11:28;;;;;;;6.10;1.50;;;;;;;;;;4996967;28;20664;-82
2021/04/10 11:13:55;;;;;;;6.93;1.35;;;;;;;;;;5002560;28;20444;-81
2021/04/10 11:16:22;;;;;;;12.75;3.13;;;;;;;;;;4995296;28;20078;-81
2021/04/10 11:18:53;;;;;;;9.88;2.58;;;;;;;;;;4996001;28;20426;-80
2021/04/10 11:21:25;;;;;;;7.00;2.33;;;;;;;;;;4993355;28;20085;-82
2021/04/10 11:23:59;;;;;;;8.75;2.83;;;;;;;;;;4993861;28;20062;-81
2021/04/10 11:26:38;;;;;;;7.95;3.38;;;;;;;;;;4996516;28;20138;-81
2021/04/10 11:29:20;;;;;;;7.20;2.55;;;;;;;;;;4989176;28;20420;-82
2021/04/10 11:32:06;;;;;;;5.53;2.17;;;;;;;;;;5006780;28;20073;-81
2021/04/10 11:34:48;;;;;;;8.13;3.38;;;;;;;;;;5003346;28;20054;-81
2021/04/10 11:37:40;;;;;;;11.45;2.10;;;;;;;;;;4995037;28;20438;-82
2021/04/10 11:40:07;;;;;;;9.73;1.33;;;;;;;;;;5004197;28;20574;-81
2021/04/10 11:42:37;;;;;;;7.43;1.80;;;;;;;;;;5011505;28;20093;-79
2021/04/10 11:45:09;;;;;;;3.97;1.45;;;;;;;;;;4997025;28;20104;-80
2021/04/10 11:47:37;;;;;;;10.13;2.33;;;;;;;;;;4990720;28;20074;-78
2021/04/10 11:50:19;;;;;;;2.65;1.23;;;;;;;;;;4999077;28;20065;-81
2021/04/10 11:52:46;;;;;;;5.68;1.23;;;;;;;;;;4994762;28;20133;-81
2021/04/10 11:55:16;;;;;;;6.03;1.88;;;;;;;;;;4993399;28;20074;-81
2021/04/10 11:57:43;;;;;;;5.30;1.05;;;;;;;;;;4976050;28;20076;-80
2021/04/10 12:00:18;;;;;;;2.67;0.80;;;;;;;;;;5000341;28;20130;-81
2021/04/10 12:02:49;;;;;;;3.97;1.08;;;;;;;;;;5004783;28;20081;-80
2021/04/10 12:05:29;;;;;;;4.13;1.50;;;;;;;;;;4996780;28;20053;-82
2021/04/10 12:08:11;;;;;;;5.13;1.40;;;;;;;;;;5000398;28;20491;-80
2021/04/10 12:10:58;;;;;;;6.45;2.72;;;;;;;;;;4976741;28;20059;-81
2021/04/10 12:13:26;;;;;;;8.05;2.88;;;;;;;;;;4968967;28;20062;-80
2021/04/10 12:15:56;;;;;;;4.00;1.10;;;;;;;;;;4982646;28;20106;-80
2021/04/10 12:18:25;;;;;;;7.82;1.30;;;;;;;;;;4990669;28;20078;-81
2021/04/10 12:20:54;;;;;;;4.45;1.25;;;;;;;;;;4997555;28;20253;-84
2021/04/10 12:23:21;;;;;;;7.80;1.60;;;;;;;;;;4985639;28;20113;-79
2021/04/10 12:25:48;;;;;;;4.15;1.33;;;;;;;;;;4982154;28;20076;-79
2021/04/10 12:28:16;;;;;;;4.88;1.20;;;;;;;;;;4974391;28;20046;-77
2021/04/10 12:30:43;;;;;;;3.22;1.10;;;;;;;;;;4990808;28;20113;-80
2021/04/10 12:33:09;;;;;;;12.85;2.75;;;;;;;;;;5015556;28;20078;-81
2021/04/10 12:35:36;;;;;;;4.65;1.48;;;;;;;;;;5002185;28;20135;-81
2021/04/10 12:38:04;;;;;;;5.40;1.65;;;;;;;;;;4981845;28;20054;-81
2021/04/10 12:40:31;;;;;;;6.90;1.35;;;;;;;;;;4996896;28;20446;-82
2021/04/10 12:42:57;;;;;;;4.00;1.55;;;;;;;;;;4991518;28;20498;-81
2021/04/10 12:45:24;;;;;;;10.35;2.60;;;;;;;;;;4990276;28;20495;-82
2021/04/10 12:47:52;;;;;;;6.72;1.05;;;;;;;;;;4972090;28;20046;-80
2021/04/10 12:50:20;;;;;;;5.90;1.38;;;;;;;;;;4991726;28;20086;-79
2021/04/10 12:52:47;;;;;;;9.75;1.90;;;;;;;;;;4994783;28;20082;-80
2021/04/10 12:55:14;;;;;;;4.93;1.48;;;;;;;;;;4989743;28;20093;-79
2021/04/10 12:57:41;;;;;;;3.35;1.02;;;;;;;;;;4977927;28;20051;-79
2021/04/10 13:00:09;;;;;;;5.55;2.00;;;;;;;;;;4994118;28;20050;-79
2021/04/10 13:02:35;;;;;;;3.28;0.98;;;;;;;;;;4994059;28;20096;-80
2021/04/10 13:05:03;;;;;;;4.18;1.42;;;;;;;;;;4991652;28;20054;-80
2021/04/10 13:07:30;;;;;;;4.22;1.30;;;;;;;;;;4976086;28;20081;-79
2021/04/10 13:09:57;;;;;;;5.97;1.48;;;;;;;;;;4993668;28;20050;-79
2021/04/10 13:12:24;;;;;;;6.72;2.05;;;;;;;;;;4993728;28;20058;-79
2021/04/10 13:14:53;;;;;;;7.38;1.58;;;;;;;;;;5010328;28;20054;-79
2021/04/10 13:17:20;;;;;;;6.43;1.60;;;;;;;;;;4994712;28;20537;-80
2021/04/10 13:19:48;;;;;;;5.63;1.73;;;;;;;;;;4987416;28;20140;-79
2021/04/10 13:22:15;;;;;;;4.15;1.30;;;;;;;;;;4974394;28;20086;-79
2021/04/10 13:24:42;;;;;;;3.28;0.90;;;;;;;;;;4974492;28;20082;-79
2021/04/10 13:27:10;;;;;;;12.50;1.55;;;;;;;;;;4989897;28;20050;-79
2021/04/10 13:29:38;;;;;;;7.15;1.17;;;;;;;;;;4975321;28;20475;-79
2021/04/10 13:32:05;;;;;;;5.85;1.50;;;;;;;;;;4974010;28;20058;-79
2021/04/10 13:34:32;;;;;;;6.93;1.95;;;;;;;;;;4982260;28;20301;-79
2021/04/10 13:36:59;;;;;;;3.60;0.98;;;;;;;;;;4993213;28;20813;-79
2021/04/10 13:39:26;;;;;;;3.58;1.00;;;;;;;;;;4993636;28;20097;-81
2021/04/10 13:41:53;;;;;;;4.63;1.38;;;;;;;;;;4976180;28;20050;-79
2021/04/10 13:44:19;;;;;;;6.20;1.00;;;;;;;;;;4975543;28;20125;-78
2021/04/10 13:46:46;;;;;;;7.72;1.20;;;;;;;;;;4993937;28;20078;-81
2021/04/10 13:49:15;;;;;;;4.97;1.10;;;;;;;;;;5009150;28;20046;-79
2021/04/10 13:51:42;;;;;;;3.75;1.13;;;;;;;;;;4976350;28;20046;-79
2021/04/10 13:54:09;;;;;;;5.03;1.23;;;;;;;;;;4993730;28;20074;-80
2021/04/10 13:56:36;;;;;;;4.50;1.25;;;;;;;;;;4976848;28;20133;-80
2021/04/10 13:59:03;;;;;;;13.57;1.88;;;;;;;;;;4996338;28;20423;-77
2021/04/10 14:01:30;;;;;;;2.97;0.80;;;;;;;;;;4984265;28;20134;-79
2021/04/10 14:03:59;;;;;;;8.93;1.08;;;;;;;;;;5000498;28;20132;-79
2021/04/10 14:06:27;;;;;;;25.70;12.27;;;;;;;;;;5013015;28;20104;-80
2021/04/10 14:08:55;;;;;;;12.27;5.25;;;;;;;;;;5001662;28;20070;-79
2021/04/10 14:11:25;;;;;;;3.15;1.27;;;;;;;;;;5007380;28;20052;-80
2021/04/10 14:13:51;;;;;;;6.55;2.28;;;;;;;;;;5011675;28;20050;-80
2021/04/10 14:16:21;;;;;;;5.03;1.48;;;;;;;;;;5011385;28;20479;-80
2021/04/10 14:18:48;;;;;;;6.93;1.65;;;;;;;;;;5005543;28;20043;-80
2021/04/10 14:21:15;;;;;;;16.92;5.13;;;;;;;;;;4992844;28;20128;-80
2021/04/10 14:23:42;;;;;;;12.02;2.00;;;;;;;;;;4988387;28;20097;-80
2021/04/10 14:26:14;;;;;;;4.45;1.50;;;;;;;;;;4980397;28;20146;-79
2021/04/10 14:28:41;;;;;;;6.85;1.05;;;;;;;;;;4992361;28;20074;-80
2021/04/10 14:31:08;;;;;;;6.20;1.23;;;;;;;;;;4962795;28;20164;-79
2021/04/10 14:33:35;;;;;;;4.20;1.38;;;;;;;;;;4984682;28;20121;-80
2021/04/10 14:36:03;;;;;;;5.13;1.33;;;;;;;;;;4991227;28;20059;-79
2021/04/10 14:38:30;;;;;;;6.93;1.27;;;;;;;;;;4979246;28;20129;-79
2021/04/10 14:40:57;;;;;;;7.68;1.38;;;;;;;;;;4993668;28;20542;-79
2021/04/10 14:43:28;;;;;;;7.40;1.10;;;;;;;;;;4986504;28;20134;-79
2021/04/10 14:45:55;;;;;;;7.97;1.42;;;;;;;;;;4973602;28;20136;-79
2021/04/10 14:48:23;;;;;;;4.05;1.10;;;;;;;;;;4988333;28;20063;-79
2021/04/10 14:50:51;;;;;;;5.35;1.10;;;;;;;;;;4984926;28;20558;-79